sensor_id;sensor_type;location;lat;lon;timestamp;pressure;altitude;pressure_sealevel;temperature;humidity
57801;BME280;43627;42.728;23.256;2023-08-08T00:00:57;94862.28;;;14.65;100.00
57801;BME280;43627;42.728;23.256;2023-08-08T00:03:25;94865.09;;;14.76;100.00
57801;BME280;43627;42.728;23.256;2023-08-08T00:05:52;94873.53;;;14.67;100.00
57801;BME280;43627;42.728;23.256;2023-08-08T00:08:19;94879.28;;;14.69;100.00
57801;BME280;43627;42.728;23.256;2023-08-08T00:10:46;94867.75;;;14.60;100.00
57801;BME280;43627;42.728;23.256;2023-08-08T00:13:12;94874.72;;;14.55;100.00
57801;BME280;43627;42.728;23.256;2023-08-08T00:15:39;94868.97;;;14.53;100.00
57801;BME280;43627;42.728;23.256;2023-08-08T00:18:06;94874.53;;;14.33;100.00
57801;BME280;43627;42.728;23.256;2023-08-08T00:20:32;94869.50;;;14.25;100.00
57801;BME280;43627;42.728;23.256;2023-08-08T00:22:59;94870.38;;;14.11;100.00
57801;BME280;43627;42.728;23.256;2023-08-08T00:25:26;94872.09;;;14.03;100.00
57801;BME280;43627;42.728;23.256;2023-08-08T00:27:53;94874.53;;;14.01;100.00
57801;BME280;43627;42.728;23.256;2023-08-08T00:30:20;94878.34;;;14.09;100.00
57801;BME280;43627;42.728;23.256;2023-08-08T00:32:46;94884.72;;;13.95;100.00
57801;BME280;43627;42.728;23.256;2023-08-08T00:35:14;94883.91;;;13.89;100.00
57801;BME280;43627;42.728;23.256;2023-08-08T00:37:41;94869.94;;;13.87;100.00
57801;BME280;43627;42.728;23.256;2023-08-08T00:40:08;94864.38;;;13.76;100.00
57801;BME280;43627;42.728;23.256;2023-08-08T00:42:34;94875.59;;;13.78;100.00
57801;BME280;43627;42.728;23.256;2023-08-08T00:45:01;94881.31;;;13.74;100.00
57801;BME280;43627;42.728;23.256;2023-08-08T00:47:32;94877.59;;;13.77;100.00
57801;BME280;43627;42.728;23.256;2023-08-08T00:50:02;94895.47;;;13.72;100.00
57801;BME280;43627;42.728;23.256;2023-08-08T00:52:29;94893.19;;;13.65;100.00
57801;BME280;43627;42.728;23.256;2023-08-08T00:54:56;94895.59;;;13.58;100.00
57801;BME280;43627;42.728;23.256;2023-08-08T00:57:23;94901.00;;;13.52;100.00
57801;BME280;43627;42.728;23.256;2023-08-08T00:59:50;94904.63;;;13.43;100.00
57801;BME280;43627;42.728;23.256;2023-08-08T01:02:17;94909.63;;;13.65;100.00
57801;BME280;43627;42.728;23.256;2023-08-08T01:04:47;94913.31;;;13.62;100.00
57801;BME280;43627;42.728;23.256;2023-08-08T01:10:07;94923.25;;;13.60;100.00
57801;BME280;43627;42.728;23.256;2023-08-08T01:12:45;94919.56;;;13.42;100.00
57801;BME280;43627;42.728;23.256;2023-08-08T01:15:13;94923.06;;;13.43;100.00
57801;BME280;43627;42.728;23.256;2023-08-08T01:17:42;94916.72;;;13.31;100.00
57801;BME280;43627;42.728;23.256;2023-08-08T01:20:10;94923.31;;;13.45;100.00
57801;BME280;43627;42.728;23.256;2023-08-08T01:25:45;94922.25;;;13.37;100.00
57801;BME280;43627;42.728;23.256;2023-08-08T01:28:13;94918.22;;;13.32;100.00
57801;BME280;43627;42.728;23.256;2023-08-08T01:30:40;94930.13;;;13.29;100.00
57801;BME280;43627;42.728;23.256;2023-08-08T01:33:07;94936.63;;;13.32;100.00
57801;BME280;43627;42.728;23.256;2023-08-08T01:35:38;94935.66;;;13.35;100.00
57801;BME280;43627;42.728;23.256;2023-08-08T01:38:11;94939.44;;;13.17;100.00
57801;BME280;43627;42.728;23.256;2023-08-08T01:40:43;94947.84;;;13.13;100.00
57801;BME280;43627;42.728;23.256;2023-08-08T01:43:12;94947.47;;;13.21;100.00
57801;BME280;43627;42.728;23.256;2023-08-08T01:45:41;94952.44;;;13.22;100.00
57801;BME280;43627;42.728;23.256;2023-08-08T01:48:10;94950.47;;;13.23;100.00
57801;BME280;43627;42.728;23.256;2023-08-08T01:50:37;94947.66;;;13.17;100.00
57801;BME280;43627;42.728;23.256;2023-08-08T01:53:04;94963.66;;;13.24;100.00
57801;BME280;43627;42.728;23.256;2023-08-08T01:55:31;94956.28;;;13.30;100.00
57801;BME280;43627;42.728;23.256;2023-08-08T01:57:58;94957.44;;;13.24;100.00
57801;BME280;43627;42.728;23.256;2023-08-08T02:00:24;94941.69;;;13.19;100.00
57801;BME280;43627;42.728;23.256;2023-08-08T02:02:52;94969.22;;;13.30;100.00
57801;BME280;43627;42.728;23.256;2023-08-08T02:05:22;94962.38;;;13.20;100.00
57801;BME280;43627;42.728;23.256;2023-08-08T02:07:49;94955.06;;;13.16;100.00
57801;BME280;43627;42.728;23.256;2023-08-08T02:10:16;94959.50;;;13.29;100.00
57801;BME280;43627;42.728;23.256;2023-08-08T02:12:42;94963.25;;;13.31;100.00
57801;BME280;43627;42.728;23.256;2023-08-08T02:15:09;94966.75;;;13.32;100.00
57801;BME280;43627;42.728;23.256;2023-08-08T02:17:37;94967.09;;;13.39;100.00
57801;BME280;43627;42.728;23.256;2023-08-08T02:20:06;94973.69;;;13.48;100.00
57801;BME280;43627;42.728;23.256;2023-08-08T02:22:34;94981.75;;;13.36;100.00
57801;BME280;43627;42.728;23.256;2023-08-08T02:25:00;94966.88;;;13.43;100.00
57801;BME280;43627;42.728;23.256;2023-08-08T02:27:27;94981.75;;;13.57;100.00
57801;BME280;43627;42.728;23.256;2023-08-08T02:29:54;94986.53;;;13.41;100.00
57801;BME280;43627;42.728;23.256;2023-08-08T02:32:20;94980.44;;;13.32;100.00
57801;BME280;43627;42.728;23.256;2023-08-08T02:34:47;94989.16;;;13.30;100.00
57801;BME280;43627;42.728;23.256;2023-08-08T02:37:14;94987.38;;;13.27;100.00
57801;BME280;43627;42.728;23.256;2023-08-08T02:39:43;94984.28;;;13.20;100.00
57801;BME280;43627;42.728;23.256;2023-08-08T02:42:10;94983.09;;;13.26;100.00
57801;BME280;43627;42.728;23.256;2023-08-08T02:44:37;94978.53;;;13.38;100.00
57801;BME280;43627;42.728;23.256;2023-08-08T02:47:04;94989.50;;;13.38;100.00
57801;BME280;43627;42.728;23.256;2023-08-08T02:49:30;94996.06;;;13.46;100.00
57801;BME280;43627;42.728;23.256;2023-08-08T02:51:57;95004.28;;;13.46;100.00
57801;BME280;43627;42.728;23.256;2023-08-08T02:54:24;95009.94;;;13.42;100.00
57801;BME280;43627;42.728;23.256;2023-08-08T02:56:51;95017.56;;;13.53;100.00
57801;BME280;43627;42.728;23.256;2023-08-08T02:59:17;95011.75;;;13.46;100.00
57801;BME280;43627;42.728;23.256;2023-08-08T03:01:44;95004.88;;;13.35;100.00
57801;BME280;43627;42.728;23.256;2023-08-08T03:04:11;95009.47;;;13.44;100.00
57801;BME280;43627;42.728;23.256;2023-08-08T03:06:38;95014.41;;;13.40;100.00
57801;BME280;43627;42.728;23.256;2023-08-08T03:09:05;95014.41;;;13.40;100.00
57801;BME280;43627;42.728;23.256;2023-08-08T03:11:31;95011.19;;;13.41;100.00
57801;BME280;43627;42.728;23.256;2023-08-08T03:13:58;95012.78;;;13.48;100.00
57801;BME280;43627;42.728;23.256;2023-08-08T03:16:25;95025.28;;;13.34;100.00
57801;BME280;43627;42.728;23.256;2023-08-08T03:18:51;95029.88;;;13.43;100.00
57801;BME280;43627;42.728;23.256;2023-08-08T03:21:18;95022.53;;;13.34;100.00
57801;BME280;43627;42.728;23.256;2023-08-08T03:23:45;95017.19;;;13.25;100.00
57801;BME280;43627;42.728;23.256;2023-08-08T03:26:11;95027.09;;;13.37;100.00
57801;BME280;43627;42.728;23.256;2023-08-08T03:28:38;95025.38;;;13.40;100.00
57801;BME280;43627;42.728;23.256;2023-08-08T03:31:05;95024.81;;;13.36;100.00
57801;BME280;43627;42.728;23.256;2023-08-08T03:33:32;95024.25;;;13.32;100.00
57801;BME280;43627;42.728;23.256;2023-08-08T03:35:58;95020.69;;;13.26;100.00
57801;BME280;43627;42.728;23.256;2023-08-08T03:38:25;95018.91;;;13.23;100.00
57801;BME280;43627;42.728;23.256;2023-08-08T03:40:52;95028.91;;;13.26;100.00
57801;BME280;43627;42.728;23.256;2023-08-08T03:43:19;95035.34;;;13.43;100.00
57801;BME280;43627;42.728;23.256;2023-08-08T03:45:45;95039.19;;;13.51;100.00
57801;BME280;43627;42.728;23.256;2023-08-08T03:48:13;95025.00;;;13.53;100.00
57801;BME280;43627;42.728;23.256;2023-08-08T03:50:39;95027.28;;;13.54;100.00
57801;BME280;43627;42.728;23.256;2023-08-08T03:53:06;95024.06;;;13.56;100.00
57801;BME280;43627;42.728;23.256;2023-08-08T03:55:33;95017.63;;;13.59;100.00
57801;BME280;43627;42.728;23.256;2023-08-08T03:58:00;95026.38;;;13.63;100.00
57801;BME280;43627;42.728;23.256;2023-08-08T04:00:26;95033.44;;;13.69;100.00
57801;BME280;43627;42.728;23.256;2023-08-08T04:02:53;95047.81;;;13.64;100.00
57801;BME280;43627;42.728;23.256;2023-08-08T04:05:20;95032.75;;;13.54;100.00
57801;BME280;43627;42.728;23.256;2023-08-08T04:07:46;95052.34;;;13.67;100.00
57801;BME280;43627;42.728;23.256;2023-08-08T04:10:13;95064.19;;;13.59;100.00
57801;BME280;43627;42.728;23.256;2023-08-08T04:12:40;95057.53;;;13.45;100.00
57801;BME280;43627;42.728;23.256;2023-08-08T04:15:07;95056.59;;;13.48;100.00
57801;BME280;43627;42.728;23.256;2023-08-08T04:17:34;95055.16;;;13.53;100.00
57801;BME280;43627;42.728;23.256;2023-08-08T04:20:01;95054.66;;;13.54;100.00
57801;BME280;43627;42.728;23.256;2023-08-08T04:22:27;95064.56;;;13.66;100.00
57801;BME280;43627;42.728;23.256;2023-08-08T04:24:54;95065.56;;;13.69;100.00
57801;BME280;43627;42.728;23.256;2023-08-08T04:27:21;95068.94;;;13.58;100.00
57801;BME280;43627;42.728;23.256;2023-08-08T04:29:47;95075.06;;;13.53;100.00
57801;BME280;43627;42.728;23.256;2023-08-08T04:32:15;95074.69;;;13.60;100.00
57801;BME280;43627;42.728;23.256;2023-08-08T04:34:42;95080.91;;;13.61;100.00
57801;BME280;43627;42.728;23.256;2023-08-08T04:37:08;95065.66;;;13.75;100.00
57801;BME280;43627;42.728;23.256;2023-08-08T04:39:35;95049.66;;;13.73;100.00
57801;BME280;43627;42.728;23.256;2023-08-08T04:42:02;95043.09;;;13.85;100.00
57801;BME280;43627;42.728;23.256;2023-08-08T04:44:29;95054.03;;;14.06;100.00
57801;BME280;43627;42.728;23.256;2023-08-08T04:46:56;95062.47;;;14.02;100.00
57801;BME280;43627;42.728;23.256;2023-08-08T04:49:23;95070.53;;;14.11;100.00
57801;BME280;43627;42.728;23.256;2023-08-08T04:51:49;95067.78;;;14.11;100.00
57801;BME280;43627;42.728;23.256;2023-08-08T04:54:16;95087.88;;;14.23;100.00
57801;BME280;43627;42.728;23.256;2023-08-08T04:56:43;95089.44;;;14.50;100.00
57801;BME280;43627;42.728;23.256;2023-08-08T04:59:09;95093.94;;;14.79;100.00
57801;BME280;43627;42.728;23.256;2023-08-08T05:01:36;95109.59;;;15.04;100.00
57801;BME280;43627;42.728;23.256;2023-08-08T05:04:03;95118.09;;;15.81;100.00
57801;BME280;43627;42.728;23.256;2023-08-08T05:06:30;95127.84;;;16.30;100.00
57801;BME280;43627;42.728;23.256;2023-08-08T05:08:57;95131.47;;;16.70;100.00
57801;BME280;43627;42.728;23.256;2023-08-08T05:11:24;95144.50;;;16.97;100.00
57801;BME280;43627;42.728;23.256;2023-08-08T05:13:50;95149.44;;;16.65;100.00
57801;BME280;43627;42.728;23.256;2023-08-08T05:16:18;95153.50;;;16.87;100.00
57801;BME280;43627;42.728;23.256;2023-08-08T05:18:44;95143.50;;;17.73;100.00
57801;BME280;43627;42.728;23.256;2023-08-08T05:21:12;95130.44;;;17.85;100.00
57801;BME280;43627;42.728;23.256;2023-08-08T05:23:38;95125.53;;;18.77;100.00
57801;BME280;43627;42.728;23.256;2023-08-08T05:26:05;95135.44;;;18.97;100.00
57801;BME280;43627;42.728;23.256;2023-08-08T05:28:32;95140.69;;;19.00;100.00
57801;BME280;43627;42.728;23.256;2023-08-08T05:30:59;95151.22;;;18.55;100.00
57801;BME280;43627;42.728;23.256;2023-08-08T05:33:25;95162.81;;;17.73;100.00
57801;BME280;43627;42.728;23.256;2023-08-08T05:35:53;95165.31;;;17.26;100.00
57801;BME280;43627;42.728;23.256;2023-08-08T05:38:19;95175.34;;;17.35;100.00
57801;BME280;43627;42.728;23.256;2023-08-08T05:40:46;95182.03;;;16.78;100.00
57801;BME280;43627;42.728;23.256;2023-08-08T05:43:13;95183.91;;;16.44;100.00
57801;BME280;43627;42.728;23.256;2023-08-08T05:45:44;95175.28;;;16.19;100.00
57801;BME280;43627;42.728;23.256;2023-08-08T05:48:11;95160.63;;;15.85;100.00
57801;BME280;43627;42.728;23.256;2023-08-08T05:50:39;95182.03;;;16.13;100.00
57801;BME280;43627;42.728;23.256;2023-08-08T05:53:06;95192.72;;;16.65;100.00
57801;BME280;43627;42.728;23.256;2023-08-08T05:55:33;95171.56;;;16.22;100.00
57801;BME280;43627;42.728;23.256;2023-08-08T05:57:59;95179.97;;;16.02;100.00
57801;BME280;43627;42.728;23.256;2023-08-08T06:00:26;95185.50;;;16.08;100.00
57801;BME280;43627;42.728;23.256;2023-08-08T06:02:53;95189.44;;;15.95;100.00
57801;BME280;43627;42.728;23.256;2023-08-08T06:05:22;95200.88;;;15.83;100.00
57801;BME280;43627;42.728;23.256;2023-08-08T06:07:50;95197.91;;;15.55;100.00
57801;BME280;43627;42.728;23.256;2023-08-08T06:10:17;95195.16;;;15.55;100.00
57801;BME280;43627;42.728;23.256;2023-08-08T06:12:43;95186.25;;;15.65;100.00
57801;BME280;43627;42.728;23.256;2023-08-08T06:15:10;95197.03;;;16.12;100.00
57801;BME280;43627;42.728;23.256;2023-08-08T06:17:37;95201.53;;;16.74;100.00
57801;BME280;43627;42.728;23.256;2023-08-08T06:20:04;95188.28;;;16.84;100.00
57801;BME280;43627;42.728;23.256;2023-08-08T06:22:33;95184.09;;;17.17;100.00
57801;BME280;43627;42.728;23.256;2023-08-08T06:25:00;95187.34;;;17.49;100.00
57801;BME280;43627;42.728;23.256;2023-08-08T06:27:27;95200.41;;;17.37;100.00
57801;BME280;43627;42.728;23.256;2023-08-08T06:29:53;95205.41;;;17.38;100.00
57801;BME280;43627;42.728;23.256;2023-08-08T06:32:20;95193.88;;;17.51;100.00
57801;BME280;43627;42.728;23.256;2023-08-08T06:34:47;95197.78;;;16.72;100.00
57801;BME280;43627;42.728;23.256;2023-08-08T06:37:14;95180.97;;;16.05;100.00
57801;BME280;43627;42.728;23.256;2023-08-08T06:39:42;95178.66;;;16.46;100.00
57801;BME280;43627;42.728;23.256;2023-08-08T06:42:08;95192.78;;;16.76;100.00
57801;BME280;43627;42.728;23.256;2023-08-08T06:44:41;95170.00;;;16.70;100.00
57801;BME280;43627;42.728;23.256;2023-08-08T06:47:09;95201.91;;;16.45;100.00
57801;BME280;43627;42.728;23.256;2023-08-08T06:49:35;95193.44;;;16.54;100.00
57801;BME280;43627;42.728;23.256;2023-08-08T06:52:02;95206.28;;;16.74;100.00
57801;BME280;43627;42.728;23.256;2023-08-08T06:54:29;95206.28;;;16.68;98.15
57801;BME280;43627;42.728;23.256;2023-08-08T06:56:56;95209.50;;;16.67;94.48
57801;BME280;43627;42.728;23.256;2023-08-08T06:59:26;95190.59;;;17.19;91.71
57801;BME280;43627;42.728;23.256;2023-08-08T07:01:53;95209.13;;;17.02;98.35
57801;BME280;43627;42.728;23.256;2023-08-08T07:04:23;95206.63;;;17.21;92.84
57801;BME280;43627;42.728;23.256;2023-08-08T07:06:54;95162.28;;;16.91;94.75
57801;BME280;43627;42.728;23.256;2023-08-08T07:09:21;95214.13;;;16.98;99.84
57801;BME280;43627;42.728;23.256;2023-08-08T07:11:48;95195.34;;;17.02;91.99
57801;BME280;43627;42.728;23.256;2023-08-08T07:14:15;95162.78;;;16.95;92.44
57801;BME280;43627;42.728;23.256;2023-08-08T07:16:42;95198.13;;;17.41;94.58
57801;BME280;43627;42.728;23.256;2023-08-08T07:19:09;95146.50;;;17.13;84.47
57801;BME280;43627;42.728;23.256;2023-08-08T07:21:39;95192.88;;;17.32;90.84
57801;BME280;43627;42.728;23.256;2023-08-08T07:24:05;95194.34;;;17.05;90.20
57801;BME280;43627;42.728;23.256;2023-08-08T07:26:32;95202.13;;;17.23;89.36
57801;BME280;43627;42.728;23.256;2023-08-08T07:28:59;95197.63;;;17.26;86.31
57801;BME280;43627;42.728;23.256;2023-08-08T07:31:25;95204.13;;;17.51;84.34
57801;BME280;43627;42.728;23.256;2023-08-08T07:33:52;95203.38;;;17.11;83.17
57801;BME280;43627;42.728;23.256;2023-08-08T07:36:19;95210.16;;;17.21;83.71
57801;BME280;43627;42.728;23.256;2023-08-08T07:38:46;95194.34;;;17.61;85.12
57801;BME280;43627;42.728;23.256;2023-08-08T07:41:12;95198.06;;;18.14;83.69
57801;BME280;43627;42.728;23.256;2023-08-08T07:43:40;95190.63;;;17.30;79.36
57801;BME280;43627;42.728;23.256;2023-08-08T07:46:06;95203.13;;;17.42;75.79
57801;BME280;43627;42.728;23.256;2023-08-08T07:48:33;95197.88;;;17.39;78.87
57801;BME280;43627;42.728;23.256;2023-08-08T07:51:00;95194.88;;;17.76;79.49
57801;BME280;43627;42.728;23.256;2023-08-08T07:53:27;95190.78;;;18.16;78.30
57801;BME280;43627;42.728;23.256;2023-08-08T07:55:54;95186.81;;;18.01;77.08
57801;BME280;43627;42.728;23.256;2023-08-08T07:58:20;95202.38;;;17.87;76.35
57801;BME280;43627;42.728;23.256;2023-08-08T08:00:49;95200.34;;;17.14;76.05
57801;BME280;43627;42.728;23.256;2023-08-08T08:03:16;95204.41;;;17.36;78.49
57801;BME280;43627;42.728;23.256;2023-08-08T08:05:43;95206.63;;;17.43;75.01
57801;BME280;43627;42.728;23.256;2023-08-08T08:08:10;95203.38;;;17.67;80.30
57801;BME280;43627;42.728;23.256;2023-08-08T08:10:37;95194.88;;;17.70;77.30
57801;BME280;43627;42.728;23.256;2023-08-08T08:13:04;95199.41;;;17.74;75.58
57801;BME280;43627;42.728;23.256;2023-08-08T08:15:31;95215.19;;;17.56;77.30
57801;BME280;43627;42.728;23.256;2023-08-08T08:17:58;95212.44;;;17.84;71.61
57801;BME280;43627;42.728;23.256;2023-08-08T08:20:25;95201.91;;;17.72;71.85
57801;BME280;43627;42.728;23.256;2023-08-08T08:22:51;95190.59;;;17.92;73.43
57801;BME280;43627;42.728;23.256;2023-08-08T08:25:18;95194.50;;;18.30;73.14
57801;BME280;43627;42.728;23.256;2023-08-08T08:27:45;95185.16;;;18.50;72.15
57801;BME280;43627;42.728;23.256;2023-08-08T08:30:12;95195.69;;;18.51;73.98
57801;BME280;43627;42.728;23.256;2023-08-08T08:32:40;95217.88;;;18.23;76.22
57801;BME280;43627;42.728;23.256;2023-08-08T08:35:08;95208.69;;;17.82;76.02
57801;BME280;43627;42.728;23.256;2023-08-08T08:37:35;95222.44;;;17.87;74.26
57801;BME280;43627;42.728;23.256;2023-08-08T08:40:01;95224.69;;;18.06;77.66
57801;BME280;43627;42.728;23.256;2023-08-08T08:42:32;95231.16;;;18.25;72.43
57801;BME280;43627;42.728;23.256;2023-08-08T08:45:02;95222.44;;;18.04;71.21
57801;BME280;43627;42.728;23.256;2023-08-08T08:47:30;95218.19;;;17.86;72.26
57801;BME280;43627;42.728;23.256;2023-08-08T08:49:58;95184.78;;;18.12;71.45
57801;BME280;43627;42.728;23.256;2023-08-08T08:52:25;95205.00;;;18.37;69.19
57801;BME280;43627;42.728;23.256;2023-08-08T08:54:52;95205.75;;;18.49;68.38
57801;BME280;43627;42.728;23.256;2023-08-08T08:57:21;95211.69;;;18.64;69.02
57801;BME280;43627;42.728;23.256;2023-08-08T08:59:50;95214.50;;;18.53;69.28
57801;BME280;43627;42.728;23.256;2023-08-08T09:02:18;95209.34;;;18.21;74.71
57801;BME280;43627;42.728;23.256;2023-08-08T09:04:45;95202.16;;;18.71;71.23
57801;BME280;43627;42.728;23.256;2023-08-08T09:07:14;95216.59;;;18.19;71.79
57801;BME280;43627;42.728;23.256;2023-08-08T09:09:43;95216.44;;;18.75;74.04
57801;BME280;43627;42.728;23.256;2023-08-08T09:12:10;95207.31;;;18.27;68.33
57801;BME280;43627;42.728;23.256;2023-08-08T09:14:42;95221.84;;;18.34;67.75
57801;BME280;43627;42.728;23.256;2023-08-08T09:17:12;95208.03;;;18.39;67.96
57801;BME280;43627;42.728;23.256;2023-08-08T09:19:44;95194.13;;;18.56;64.17
57801;BME280;43627;42.728;23.256;2023-08-08T09:22:12;95197.94;;;18.53;66.89
57801;BME280;43627;42.728;23.256;2023-08-08T09:24:40;95206.50;;;18.44;69.95
57801;BME280;43627;42.728;23.256;2023-08-08T09:27:08;95195.91;;;18.53;68.83
57801;BME280;43627;42.728;23.256;2023-08-08T09:29:36;95202.94;;;18.60;67.05
57801;BME280;43627;42.728;23.256;2023-08-08T09:32:05;95197.69;;;18.45;64.64
57801;BME280;43627;42.728;23.256;2023-08-08T09:34:32;95191.19;;;18.43;69.23
57801;BME280;43627;42.728;23.256;2023-08-08T09:36:59;95205.47;;;18.52;65.52
57801;BME280;43627;42.728;23.256;2023-08-08T09:39:28;95195.44;;;18.44;67.01
57801;BME280;43627;42.728;23.256;2023-08-08T09:41:58;95203.16;;;18.62;65.50
57801;BME280;43627;42.728;23.256;2023-08-08T09:44:25;95198.22;;;18.44;66.29
57801;BME280;43627;42.728;23.256;2023-08-08T09:46:54;95203.47;;;18.47;68.52
57801;BME280;43627;42.728;23.256;2023-08-08T09:49:21;95206.69;;;18.68;68.53
57801;BME280;43627;42.728;23.256;2023-08-08T09:51:52;95197.63;;;18.62;72.49
57801;BME280;43627;42.728;23.256;2023-08-08T09:54:21;95192.81;;;18.79;68.58
57801;BME280;43627;42.728;23.256;2023-08-08T09:56:49;95199.13;;;19.16;66.53
57801;BME280;43627;42.728;23.256;2023-08-08T09:59:17;95195.88;;;19.47;63.02
57801;BME280;43627;42.728;23.256;2023-08-08T10:01:46;95198.53;;;19.64;63.23
57801;BME280;43627;42.728;23.256;2023-08-08T10:04:14;95184.97;;;19.60;60.94
57801;BME280;43627;42.728;23.256;2023-08-08T10:06:41;95193.84;;;19.83;59.53
57801;BME280;43627;42.728;23.256;2023-08-08T10:09:08;95201.31;;;19.88;56.83
57801;BME280;43627;42.728;23.256;2023-08-08T10:11:35;95180.75;;;19.84;56.22
57801;BME280;43627;42.728;23.256;2023-08-08T10:14:03;95195.81;;;20.13;56.53
57801;BME280;43627;42.728;23.256;2023-08-08T10:16:34;95190.44;;;20.20;57.74
57801;BME280;43627;42.728;23.256;2023-08-08T10:19:03;95203.38;;;20.12;58.18
57801;BME280;43627;42.728;23.256;2023-08-08T10:21:37;95203.84;;;20.35;56.59
57801;BME280;43627;42.728;23.256;2023-08-08T10:24:09;95210.50;;;20.26;56.39
57801;BME280;43627;42.728;23.256;2023-08-08T10:26:56;95208.28;;;20.49;56.08
57801;BME280;43627;42.728;23.256;2023-08-08T10:29:25;95216.13;;;20.64;53.95
57801;BME280;43627;42.728;23.256;2023-08-08T10:32:06;95204.22;;;20.50;55.68
57801;BME280;43627;42.728;23.256;2023-08-08T10:34:40;95197.19;;;20.49;55.02
57801;BME280;43627;42.728;23.256;2023-08-08T10:37:16;95200.88;;;20.76;54.09
57801;BME280;43627;42.728;23.256;2023-08-08T10:39:59;95202.91;;;20.76;51.86
57801;BME280;43627;42.728;23.256;2023-08-08T10:42:27;95192.69;;;20.65;51.92
57801;BME280;43627;42.728;23.256;2023-08-08T10:44:56;95204.63;;;20.60;52.37
57801;BME280;43627;42.728;23.256;2023-08-08T10:47:42;95201.31;;;20.80;54.50
57801;BME280;43627;42.728;23.256;2023-08-08T10:50:15;95196.59;;;20.57;50.75
57801;BME280;43627;42.728;23.256;2023-08-08T10:55:26;95187.59;;;20.50;54.41
57801;BME280;43627;42.728;23.256;2023-08-08T10:58:02;95200.47;;;19.99;55.75
57801;BME280;43627;42.728;23.256;2023-08-08T11:00:34;95176.31;;;20.24;59.22
57801;BME280;43627;42.728;23.256;2023-08-08T11:03:03;95186.19;;;20.63;54.49
57801;BME280;43627;42.728;23.256;2023-08-08T11:05:35;95191.97;;;20.40;53.34
57801;BME280;43627;42.728;23.256;2023-08-08T11:08:04;95193.44;;;20.47;53.92
57801;BME280;43627;42.728;23.256;2023-08-08T11:10:38;95187.41;;;20.00;54.94
57801;BME280;43627;42.728;23.256;2023-08-08T11:13:07;95182.09;;;20.02;59.38
57801;BME280;43627;42.728;23.256;2023-08-08T11:15:36;95175.59;;;20.42;55.19
57801;BME280;43627;42.728;23.256;2023-08-08T11:18:04;95196.00;;;20.82;53.53
57801;BME280;43627;42.728;23.256;2023-08-08T11:20:32;95178.63;;;20.63;52.28
57801;BME280;43627;42.728;23.256;2023-08-08T11:23:00;95173.31;;;20.65;53.58
57801;BME280;43627;42.728;23.256;2023-08-08T11:25:29;95178.34;;;20.67;55.17
57801;BME280;43627;42.728;23.256;2023-08-08T11:27:57;95179.00;;;21.10;52.64
57801;BME280;43627;42.728;23.256;2023-08-08T11:30:29;95180.94;;;21.34;51.65
57801;BME280;43627;42.728;23.256;2023-08-08T11:32:56;95195.44;;;21.73;50.58
57801;BME280;43627;42.728;23.256;2023-08-08T11:35:26;95188.31;;;21.77;49.67
57801;BME280;43627;42.728;23.256;2023-08-08T11:37:56;95185.66;;;21.98;49.11
57801;BME280;43627;42.728;23.256;2023-08-08T11:40:26;95176.56;;;21.71;47.95
57801;BME280;43627;42.728;23.256;2023-08-08T11:42:54;95180.41;;;21.81;47.92
57801;BME280;43627;42.728;23.256;2023-08-08T11:45:22;95181.59;;;21.86;47.61
57801;BME280;43627;42.728;23.256;2023-08-08T11:47:50;95185.09;;;21.73;47.75
57801;BME280;43627;42.728;23.256;2023-08-08T11:50:20;95173.00;;;21.57;48.85
57801;BME280;43627;42.728;23.256;2023-08-08T11:52:51;95175.19;;;21.32;48.81
57801;BME280;43627;42.728;23.256;2023-08-08T11:55:18;95174.19;;;21.30;49.88
57801;BME280;43627;42.728;23.256;2023-08-08T11:57:48;95161.69;;;21.23;50.69
57801;BME280;43627;42.728;23.256;2023-08-08T12:00:16;95148.75;;;21.45;49.84
57801;BME280;43627;42.728;23.256;2023-08-08T12:02:45;95150.66;;;21.50;51.11
57801;BME280;43627;42.728;23.256;2023-08-08T12:05:13;95145.28;;;21.71;48.98
57801;BME280;43627;42.728;23.256;2023-08-08T12:07:43;95151.88;;;21.67;49.90
57801;BME280;43627;42.728;23.256;2023-08-08T12:10:20;95152.88;;;21.96;49.61
57801;BME280;43627;42.728;23.256;2023-08-08T12:12:53;95149.19;;;22.07;48.65
57801;BME280;43627;42.728;23.256;2023-08-08T12:15:21;95152.75;;;21.62;48.53
57801;BME280;43627;42.728;23.256;2023-08-08T12:17:48;95153.63;;;21.71;48.45
57801;BME280;43627;42.728;23.256;2023-08-08T12:20:16;95143.59;;;21.94;49.01
57801;BME280;43627;42.728;23.256;2023-08-08T12:22:42;95136.47;;;22.12;48.41
57801;BME280;43627;42.728;23.256;2023-08-08T12:25:09;95137.44;;;22.14;50.04
57801;BME280;43627;42.728;23.256;2023-08-08T12:27:36;95140.19;;;22.01;48.33
57801;BME280;43627;42.728;23.256;2023-08-08T12:30:03;95132.63;;;22.28;49.25
57801;BME280;43627;42.728;23.256;2023-08-08T12:32:29;95129.38;;;21.98;47.58
57801;BME280;43627;42.728;23.256;2023-08-08T12:34:58;95130.75;;;21.78;48.26
57801;BME280;43627;42.728;23.256;2023-08-08T12:37:25;95123.09;;;21.84;49.74
57801;BME280;43627;42.728;23.256;2023-08-08T12:39:51;95126.31;;;22.14;47.52
57801;BME280;43627;42.728;23.256;2023-08-08T12:42:18;95126.44;;;22.09;46.81
57801;BME280;43627;42.728;23.256;2023-08-08T12:44:45;95125.88;;;22.23;48.37
57801;BME280;43627;42.728;23.256;2023-08-08T12:47:13;95111.38;;;22.17;46.58
57801;BME280;43627;42.728;23.256;2023-08-08T12:49:41;95119.81;;;21.99;47.88
57801;BME280;43627;42.728;23.256;2023-08-08T12:52:11;95116.16;;;22.17;48.12
57801;BME280;43627;42.728;23.256;2023-08-08T12:54:37;95104.06;;;22.41;46.68
57801;BME280;43627;42.728;23.256;2023-08-08T12:57:04;95118.75;;;22.28;47.15